logo
Search for airport 
image banner adimage banner adimage banner ad
image banner ad

MHTG - Toncontin

Located in Tegucigalpa, Honduras

ICAO - MHTG, IATA - TGU

Data provided by Airmate  

General information

Coordinates: N14°3'37" W87°13'3"
Elevation is 3307 feet MSL.
 
View others Airports in Francisco Morazan

Operational data

Special qualification required
Current time UTC:
Current local time:
Weather
METAR: MHTG 281334Z VRB02KT 9999 FEW030 19/15 Q1021 A3015 NOSIG
TAF: TAF MHTG 281100Z 2812/2912 VRB05KT 9999 FEW030 TX31/2820Z TN13/2912Z BECMG 2815/2817 06012KT CAVOK BECMG 2903/2905 VRB05KT 9999 SCT030
View NOTAMs / SUP AIP / TFR affecting this airport [VIEW]
Communications frequencies: [VIEW]

Runways:

RWY identifierQFULength (ft)Width (ft)SurfaceLDA (ft)
0219°6631148ASP
20199°6631148ASP

Airport contact information

Address: Tegucigalpa Honduras

Satellite view of MHTG